createdAt,value
2023-01-29T00:00:42.057Z,6.72
2023-01-29T00:03:12.829Z,5.93
2023-01-29T00:05:50.720Z,5.50
2023-01-29T00:08:21.168Z,6.38
2023-01-29T00:10:49.361Z,6.10
2023-01-29T00:13:19.843Z,5.82
2023-01-29T00:16:00.533Z,7.72
2023-01-29T00:18:29.811Z,6.53
2023-01-29T00:20:57.638Z,7.05
2023-01-29T00:23:27.690Z,6.93
2023-01-29T00:26:03.543Z,7.22
2023-01-29T00:28:34.230Z,6.43
2023-01-29T00:31:19.982Z,6.63
2023-01-29T00:33:52.182Z,7.50
2023-01-29T00:36:23.393Z,7.57
2023-01-29T00:39:07.462Z,7.22
2023-01-29T00:42:01.510Z,6.93
2023-01-29T00:44:55.225Z,7.67
2023-01-29T00:47:38.938Z,8.38
2023-01-29T00:50:19.839Z,8.55
2023-01-29T00:52:56.468Z,8.48
2023-01-29T00:55:27.548Z,9.00
2023-01-29T00:58:04.141Z,8.60
2023-01-29T01:00:40.134Z,9.15
2023-01-29T01:03:13.997Z,9.10
2023-01-29T01:05:49.727Z,9.40
2023-01-29T01:08:46.361Z,8.75
2023-01-29T01:11:21.436Z,8.50
2023-01-29T01:13:49.031Z,9.55
2023-01-29T01:16:27.572Z,8.90
2023-01-29T01:19:06.816Z,8.82
2023-01-29T01:21:50.022Z,8.50
2023-01-29T01:24:25.548Z,9.50
2023-01-29T01:26:59.158Z,8.40
2023-01-29T01:29:36.216Z,9.20
2023-01-29T01:32:26.935Z,8.50
2023-01-29T01:35:05.897Z,8.95
2023-01-29T01:37:43.996Z,7.78
2023-01-29T01:40:24.809Z,7.68
2023-01-29T01:43:05.007Z,8.13
2023-01-29T01:45:40.386Z,7.28
2023-01-29T01:48:19.960Z,7.93
2023-01-29T01:50:57.193Z,7.57
2023-01-29T01:54:06.274Z,7.95
2023-01-29T01:56:55.739Z,8.68
2023-01-29T02:02:50.840Z,7.18
2023-01-29T02:05:37.352Z,8.32
2023-01-29T02:08:26.353Z,7.22
2023-01-29T02:10:59.049Z,7.88
2023-01-29T02:13:53.848Z,8.45
2023-01-29T02:16:40.539Z,7.85
2023-01-29T02:19:25.450Z,7.47
2023-01-29T02:22:35.296Z,7.80
2023-01-29T02:25:22.152Z,6.95
2023-01-29T02:27:50.520Z,7.78
2023-01-29T02:30:43.393Z,8.45
2023-01-29T02:36:33.146Z,7.90
2023-01-29T02:39:37.953Z,7.30
2023-01-29T02:42:23.363Z,7.53
2023-01-29T02:45:17.253Z,7.28
2023-01-29T02:48:11.726Z,7.78
2023-01-29T02:51:02.511Z,7.30
2023-01-29T02:53:46.204Z,7.57
2023-01-29T02:56:41.400Z,8.18
2023-01-29T02:59:55.301Z,7.97
2023-01-29T03:02:47.117Z,6.65
2023-01-29T03:06:04.392Z,6.93
2023-01-29T03:08:50.359Z,7.10
2023-01-29T03:11:32.862Z,6.88
2023-01-29T03:14:07.908Z,7.75
2023-01-29T03:16:49.470Z,6.13
2023-01-29T03:19:36.874Z,6.70
2023-01-29T03:22:25.638Z,6.55
2023-01-29T03:25:41.861Z,6.32
2023-01-29T03:28:41.139Z,6.55
2023-01-29T03:31:36.243Z,6.53
2023-01-29T03:34:30.598Z,6.07
2023-01-29T03:37:14.246Z,6.28
2023-01-29T03:39:45.140Z,5.27
2023-01-29T03:42:38.857Z,5.68
2023-01-29T03:45:20.938Z,5.90
2023-01-29T03:48:33.355Z,5.55
2023-01-29T03:51:21.617Z,7.07
2023-01-29T03:54:09.972Z,5.20
2023-01-29T03:57:19.185Z,5.97
2023-01-29T04:00:03.345Z,5.90
2023-01-29T04:03:10.441Z,5.38
2023-01-29T04:06:01.755Z,5.35
2023-01-29T04:08:42.506Z,5.43
2023-01-29T04:11:18.073Z,5.35
2023-01-29T04:13:53.856Z,5.57
2023-01-29T04:16:37.988Z,5.50
2023-01-29T04:19:29.113Z,5.65
2023-01-29T04:22:14.559Z,5.75
2023-01-29T04:24:52.596Z,6.15
2023-01-29T04:27:36.931Z,6.00
2023-01-29T04:30:34.082Z,6.07
2023-01-29T04:33:38.476Z,4.82
2023-01-29T04:36:28.773Z,5.28
2023-01-29T04:39:28.692Z,5.03
2023-01-29T04:42:11.170Z,5.22
2023-01-29T04:48:43.635Z,4.95
2023-01-29T04:51:19.760Z,4.68
2023-01-29T04:54:18.775Z,5.38
2023-01-29T04:57:36.660Z,5.32
2023-01-29T05:00:19.615Z,5.30
2023-01-29T05:02:49.690Z,4.85
2023-01-29T05:05:26.019Z,5.68
2023-01-29T05:07:59.464Z,5.07
2023-01-29T05:10:39.205Z,4.50
2023-01-29T05:13:11.067Z,5.03
2023-01-29T05:16:00.224Z,5.30
2023-01-29T05:18:36.362Z,5.20
2023-01-29T05:21:12.159Z,4.72
2023-01-29T05:23:46.844Z,4.82
2023-01-29T05:26:45.432Z,5.35
2023-01-29T05:29:18.307Z,5.07
2023-01-29T05:31:46.281Z,5.32
2023-01-29T05:34:13.919Z,5.13
2023-01-29T05:36:45.458Z,5.25
2023-01-29T05:39:22.387Z,4.90
2023-01-29T05:41:57.014Z,4.82
2023-01-29T05:44:27.884Z,5.20
2023-01-29T05:47:24.857Z,5.18
2023-01-29T05:49:55.463Z,5.25
2023-01-29T05:52:22.780Z,5.07
2023-01-29T05:54:56.244Z,4.97
2023-01-29T05:57:29.035Z,4.60
2023-01-29T06:00:02.331Z,4.50
2023-01-29T06:02:53.067Z,4.50
2023-01-29T06:05:23.338Z,4.90
2023-01-29T06:07:52.331Z,4.95
2023-01-29T06:10:20.506Z,5.40
2023-01-29T06:12:48.491Z,4.63
2023-01-29T06:15:17.070Z,4.93
2023-01-29T06:17:44.247Z,5.22
2023-01-29T06:20:15.153Z,5.78
2023-01-29T06:22:55.623Z,3.83
2023-01-29T06:25:37.583Z,3.47
2023-01-29T06:28:05.186Z,3.60
2023-01-29T06:30:32.882Z,3.88
2023-01-29T06:33:09.311Z,4.63
2023-01-29T06:35:56.949Z,4.00
2023-01-29T06:38:27.844Z,4.20
2023-01-29T06:41:01.647Z,4.60
2023-01-29T06:43:28.900Z,4.15
2023-01-29T06:46:08.034Z,3.72
2023-01-29T06:48:41.270Z,4.00
2023-01-29T06:51:13.314Z,4.05
2023-01-29T06:54:13.634Z,4.55
2023-01-29T06:56:41.424Z,4.57
2023-01-29T06:59:32.609Z,3.83
2023-01-29T07:02:06.045Z,4.50
2023-01-29T07:04:35.845Z,4.82
2023-01-29T07:07:21.170Z,4.53
2023-01-29T07:09:55.402Z,4.45
2023-01-29T07:12:31.824Z,4.22
2023-01-29T07:15:05.970Z,4.25
2023-01-29T07:17:42.783Z,4.07
2023-01-29T07:20:19.760Z,3.90
2023-01-29T07:22:52.002Z,3.72
2023-01-29T07:25:37.335Z,4.03
2023-01-29T07:28:08.068Z,3.90
2023-01-29T07:30:38.292Z,4.63
2023-01-29T07:33:13.102Z,4.43
2023-01-29T07:35:50.234Z,3.92
2023-01-29T07:38:21.530Z,4.30
2023-01-29T07:40:58.882Z,4.53
2023-01-29T07:43:36.197Z,4.97
2023-01-29T07:46:09.657Z,4.97
2023-01-29T07:48:50.257Z,5.70
2023-01-29T07:51:24.813Z,5.38
2023-01-29T07:53:59.697Z,5.47
2023-01-29T07:56:32.312Z,5.45
2023-01-29T07:59:10.975Z,5.93
2023-01-29T08:01:38.296Z,5.82
2023-01-29T08:04:05.740Z,5.70
2023-01-29T08:06:38.711Z,5.53
2023-01-29T08:09:13.930Z,5.68
2023-01-29T08:11:41.249Z,5.55
2023-01-29T08:14:13.936Z,6.43
2023-01-29T08:16:46.168Z,6.23
2023-01-29T08:19:28.057Z,6.20
2023-01-29T08:22:08.742Z,5.88
2023-01-29T08:24:53.335Z,5.65
2023-01-29T08:27:32.549Z,6.78
2023-01-29T08:30:00.177Z,6.40
2023-01-29T08:32:32.771Z,6.90
2023-01-29T08:35:00.589Z,8.80
2023-01-29T08:37:30.573Z,5.88
2023-01-29T08:40:03.894Z,6.32
2023-01-29T08:42:44.968Z,6.40
2023-01-29T08:45:12.609Z,6.47
2023-01-29T08:47:52.459Z,6.65
2023-01-29T08:50:25.014Z,5.97
2023-01-29T08:52:59.896Z,5.60
2023-01-29T08:55:29.490Z,5.93
2023-01-29T08:58:05.868Z,5.78
2023-01-29T09:00:52.688Z,5.00
2023-01-29T09:06:04.616Z,5.90
2023-01-29T09:08:34.763Z,5.10
2023-01-29T09:11:11.420Z,5.80
2023-01-29T09:13:52.865Z,6.45
2023-01-29T09:16:39.957Z,5.47
2023-01-29T09:19:17.795Z,5.85
2023-01-29T09:21:45.003Z,6.30
2023-01-29T09:24:12.316Z,5.88
2023-01-29T09:26:46.920Z,6.03
2023-01-29T09:32:00.988Z,7.22
2023-01-29T09:34:35.764Z,6.13
2023-01-29T09:37:05.912Z,7.15
2023-01-29T09:39:40.411Z,6.07
2023-01-29T09:42:27.952Z,6.70
2023-01-29T09:48:19.327Z,6.25
2023-01-29T09:51:41.719Z,6.35
2023-01-29T09:54:36.493Z,5.95
2023-01-29T09:57:17.700Z,6.63
2023-01-29T09:59:45.191Z,6.55
2023-01-29T10:02:52.146Z,7.10
2023-01-29T10:06:03.895Z,7.25
2023-01-29T10:09:03.943Z,6.75
2023-01-29T10:11:58.201Z,7.40
2023-01-29T10:15:00.302Z,7.22
2023-01-29T10:18:14.648Z,7.32
2023-01-29T10:21:16.038Z,7.72
2023-01-29T10:24:02.029Z,8.70
2023-01-29T10:26:40.961Z,8.65
2023-01-29T10:29:18.408Z,11.77
2023-01-29T10:32:10.187Z,8.18
2023-01-29T10:35:04.237Z,8.60
2023-01-29T10:37:45.446Z,9.25
2023-01-29T10:40:42.040Z,8.10
2023-01-29T10:46:39.033Z,8.30
2023-01-29T10:49:25.021Z,7.88
2023-01-29T10:52:07.409Z,8.05
2023-01-29T10:54:51.592Z,9.20
2023-01-29T10:57:45.806Z,8.18
2023-01-29T11:03:04.258Z,7.95
2023-01-29T11:05:47.647Z,8.75
2023-01-29T11:08:23.325Z,8.30
2023-01-29T11:12:00.422Z,8.13
2023-01-29T11:14:33.841Z,11.75
2023-01-29T11:17:01.297Z,10.48
2023-01-29T11:19:43.530Z,8.30
2023-01-29T11:22:16.825Z,8.13
2023-01-29T11:24:49.650Z,9.75
2023-01-29T11:27:32.162Z,12.13
2023-01-29T11:30:07.803Z,9.07
2023-01-29T11:32:51.273Z,7.68
2023-01-29T11:35:25.469Z,9.30
2023-01-29T11:38:08.194Z,9.55
2023-01-29T11:40:41.032Z,9.02
2023-01-29T11:43:29.253Z,8.45
2023-01-29T11:46:06.229Z,8.25
2023-01-29T11:48:59.222Z,9.27
2023-01-29T11:51:38.889Z,8.50
2023-01-29T11:54:20.322Z,8.45
2023-01-29T11:56:54.678Z,7.82
2023-01-29T11:59:26.874Z,7.40
2023-01-29T12:02:29.689Z,7.78
2023-01-29T12:05:14.596Z,6.95
2023-01-29T12:07:46.747Z,9.00
2023-01-29T12:10:40.630Z,8.05
2023-01-29T12:13:29.111Z,8.05
2023-01-29T12:16:33.398Z,7.72
2023-01-29T12:22:04.020Z,7.55
2023-01-29T12:28:15.336Z,9.50
2023-01-29T12:31:36.526Z,8.23
2023-01-29T12:34:49.966Z,8.05
2023-01-29T12:37:38.315Z,7.28
2023-01-29T12:40:17.341Z,8.10
2023-01-29T12:43:05.516Z,7.43
2023-01-29T12:45:37.727Z,7.97
2023-01-29T12:48:33.346Z,7.78
2023-01-29T12:51:18.846Z,8.13
2023-01-29T12:53:59.638Z,8.67
2023-01-29T12:56:56.594Z,11.27
2023-01-29T13:03:29.835Z,9.30
2023-01-29T13:06:13.178Z,9.60
2023-01-29T13:11:52.639Z,13.77
2023-01-29T13:14:29.170Z,10.88
2023-01-29T13:17:26.051Z,10.25
2023-01-29T13:20:01.037Z,10.13
2023-01-29T13:22:36.403Z,10.32
2023-01-29T13:25:22.704Z,10.02
2023-01-29T13:27:56.748Z,10.40
2023-01-29T13:30:35.008Z,10.02
2023-01-29T13:33:15.761Z,10.60
2023-01-29T13:35:49.542Z,14.52
2023-01-29T13:38:47.970Z,10.52
2023-01-29T13:41:31.619Z,11.20
2023-01-29T13:46:53.014Z,10.88
2023-01-29T13:50:05.790Z,13.13
2023-01-29T13:53:07.737Z,13.50
2023-01-29T13:55:42.659Z,10.90
2023-01-29T13:58:18.807Z,10.52
2023-01-29T14:01:00.392Z,11.18
2023-01-29T14:04:08.622Z,13.68
2023-01-29T14:06:43.371Z,14.75
2023-01-29T14:09:41.817Z,14.15
2023-01-29T14:15:26.329Z,11.23
2023-01-29T14:18:29.637Z,11.82
2023-01-29T14:21:34.173Z,11.75
2023-01-29T14:24:26.082Z,11.38
2023-01-29T14:27:10.966Z,11.05
2023-01-29T14:29:48.743Z,11.10
2023-01-29T14:32:25.369Z,11.27
2023-01-29T14:41:10.957Z,12.15
2023-01-29T14:43:38.250Z,11.55
2023-01-29T14:46:39.501Z,11.93
2023-01-29T14:49:12.487Z,10.70
2023-01-29T14:52:04.445Z,12.05
2023-01-29T14:54:42.429Z,11.40
2023-01-29T14:57:17.036Z,13.55
2023-01-29T14:59:59.660Z,12.55
2023-01-29T15:02:43.421Z,10.60
2023-01-29T15:05:36.334Z,11.05
2023-01-29T15:08:39.424Z,15.00
2023-01-29T15:11:53.779Z,13.40
2023-01-29T15:14:46.559Z,10.95
2023-01-29T15:17:34.027Z,10.75
2023-01-29T15:20:09.000Z,9.88
2023-01-29T15:22:43.223Z,10.38
2023-01-29T15:25:24.987Z,12.20
2023-01-29T15:27:58.874Z,10.05
2023-01-29T15:30:47.907Z,11.18
2023-01-29T15:33:25.777Z,10.68
2023-01-29T15:36:08.270Z,13.05
2023-01-29T15:38:36.861Z,13.60
2023-01-29T15:41:23.182Z,11.13
2023-01-29T15:44:23.673Z,9.68
2023-01-29T15:47:33.104Z,9.32
2023-01-29T15:50:00.890Z,9.60
2023-01-29T15:52:39.932Z,9.40
2023-01-29T15:55:31.791Z,9.80
2023-01-29T15:58:03.469Z,10.68
2023-01-29T16:00:38.834Z,9.43
2023-01-29T16:03:35.373Z,9.90
2023-01-29T16:06:05.417Z,9.15
2023-01-29T16:08:59.608Z,9.65
2023-01-29T16:13:59.286Z,9.55
2023-01-29T16:16:28.291Z,9.95
2023-01-29T16:19:03.351Z,9.77
2023-01-29T16:21:36.969Z,8.85
2023-01-29T16:27:17.719Z,8.85
2023-01-29T16:29:54.057Z,9.90
2023-01-29T16:32:26.092Z,10.10
2023-01-29T16:35:00.386Z,9.35
2023-01-29T16:37:36.619Z,8.60
2023-01-29T16:40:26.099Z,9.57
2023-01-29T16:43:20.655Z,8.95
2023-01-29T16:46:32.848Z,9.77
2023-01-29T16:49:30.388Z,9.35
2023-01-29T16:52:24.408Z,8.93
2023-01-29T16:54:55.751Z,9.73
2023-01-29T16:57:35.993Z,9.15
2023-01-29T17:00:18.718Z,10.00
2023-01-29T17:02:46.369Z,8.32
2023-01-29T17:05:53.677Z,8.40
2023-01-29T17:08:35.029Z,8.80
2023-01-29T17:11:07.412Z,9.30
2023-01-29T17:13:47.032Z,8.18
2023-01-29T17:16:29.574Z,8.85
2023-01-29T17:19:00.903Z,9.02
2023-01-29T17:21:38.920Z,8.80
2023-01-29T17:24:07.567Z,8.13
2023-01-29T17:27:13.550Z,7.65
2023-01-29T17:29:47.022Z,7.70
2023-01-29T17:34:59.644Z,7.10
2023-01-29T17:37:32.744Z,7.00
2023-01-29T17:40:39.069Z,7.40
2023-01-29T17:43:21.574Z,6.75
2023-01-29T17:45:48.971Z,6.10
2023-01-29T17:48:27.580Z,6.88
2023-01-29T17:51:07.667Z,7.25
2023-01-29T17:53:52.565Z,6.18
2023-01-29T17:56:30.849Z,5.88
2023-01-29T17:59:12.271Z,6.35
2023-01-29T18:01:56.502Z,6.43
2023-01-29T18:04:31.335Z,6.68
2023-01-29T18:06:59.558Z,6.07
2023-01-29T18:09:31.611Z,6.95
2023-01-29T18:12:01.955Z,7.10
2023-01-29T18:14:46.108Z,6.53
2023-01-29T18:20:33.589Z,6.85
2023-01-29T18:23:09.321Z,7.03
2023-01-29T18:25:39.895Z,7.25
2023-01-29T18:28:07.825Z,7.25
2023-01-29T18:30:47.441Z,7.40
2023-01-29T18:33:41.436Z,7.78
2023-01-29T18:38:53.352Z,9.45
2023-01-29T18:41:26.984Z,7.78
2023-01-29T18:46:32.937Z,6.78
2023-01-29T18:49:14.605Z,8.43
2023-01-29T18:51:57.600Z,7.90
2023-01-29T18:54:29.787Z,7.97
2023-01-29T18:58:27.829Z,7.50
2023-01-29T19:00:27.732Z,7.05
2023-01-29T19:02:55.153Z,8.85
2023-01-29T19:05:24.051Z,7.25
2023-01-29T19:08:06.704Z,9.75
2023-01-29T19:10:40.940Z,20.10
2023-01-29T19:13:11.297Z,9.27
2023-01-29T19:15:43.660Z,7.80
2023-01-29T19:18:15.047Z,7.63
2023-01-29T19:20:42.906Z,8.13
2023-01-29T19:23:17.678Z,7.88
2023-01-29T19:25:49.583Z,8.68
2023-01-29T19:28:24.152Z,8.13
2023-01-29T19:31:02.242Z,8.35
2023-01-29T19:33:36.106Z,9.43
2023-01-29T19:36:13.907Z,9.40
2023-01-29T19:38:44.609Z,9.95
2023-01-29T19:41:12.020Z,9.95
2023-01-29T19:44:16.429Z,13.45
2023-01-29T19:47:14.123Z,12.18
2023-01-29T19:49:53.659Z,11.77
2023-01-29T19:52:50.124Z,11.23
2023-01-29T19:55:21.307Z,10.65
2023-01-29T19:57:58.971Z,10.18
2023-01-29T20:01:04.646Z,10.32
2023-01-29T20:03:35.171Z,10.18
2023-01-29T20:06:11.951Z,10.27
2023-01-29T20:08:58.821Z,10.55
2023-01-29T20:11:28.319Z,10.75
2023-01-29T20:13:59.156Z,10.98
2023-01-29T20:16:41.480Z,10.07
2023-01-29T20:19:14.474Z,9.70
2023-01-29T20:24:24.277Z,11.68
2023-01-29T20:26:55.987Z,10.93
2023-01-29T20:29:29.266Z,10.25
2023-01-29T20:34:59.154Z,10.88
2023-01-29T20:37:27.672Z,14.00
2023-01-29T20:39:55.051Z,14.80
2023-01-29T20:42:34.880Z,16.85
2023-01-29T20:45:02.182Z,14.15
2023-01-29T20:47:54.500Z,13.75
2023-01-29T20:50:23.419Z,12.38
2023-01-29T20:52:53.549Z,13.25
2023-01-29T20:55:23.781Z,12.65
2023-01-29T20:58:05.761Z,13.53
2023-01-29T21:00:46.358Z,11.52
2023-01-29T21:03:22.072Z,12.57
2023-01-29T21:05:50.581Z,11.50
2023-01-29T21:08:26.180Z,12.55
2023-01-29T21:11:12.562Z,10.98
2023-01-29T21:13:49.432Z,12.02
2023-01-29T21:16:16.742Z,12.25
2023-01-29T21:18:53.735Z,10.90
2023-01-29T21:21:24.672Z,11.90
2023-01-29T21:26:58.860Z,11.13
2023-01-29T21:29:29.664Z,11.48
2023-01-29T21:32:07.479Z,11.70
2023-01-29T21:34:40.673Z,11.15
2023-01-29T21:37:14.263Z,11.63
2023-01-29T21:42:34.904Z,11.40
2023-01-29T21:45:05.407Z,11.30
2023-01-29T21:47:32.568Z,11.68
2023-01-29T21:50:00.031Z,11.07
2023-01-29T21:52:27.212Z,9.43
2023-01-29T21:54:59.580Z,10.10
2023-01-29T21:57:29.332Z,10.15
2023-01-29T22:00:05.439Z,10.32
2023-01-29T22:02:56.650Z,9.32
2023-01-29T22:05:29.058Z,9.18
2023-01-29T22:07:56.883Z,8.75
2023-01-29T22:10:27.179Z,9.43
2023-01-29T22:12:57.325Z,9.32
2023-01-29T22:15:27.728Z,9.48
2023-01-29T22:17:55.386Z,8.95
2023-01-29T22:20:29.964Z,9.27
2023-01-29T22:23:03.174Z,9.40
2023-01-29T22:25:37.445Z,9.48
2023-01-29T22:28:06.178Z,9.13
2023-01-29T22:30:47.914Z,9.38
2023-01-29T22:33:44.052Z,9.68
2023-01-29T22:36:18.263Z,9.30
2023-01-29T22:38:47.394Z,8.65
2023-01-29T22:41:24.501Z,9.32
2023-01-29T22:46:46.494Z,8.25
2023-01-29T22:49:23.488Z,7.55
2023-01-29T22:55:01.502Z,7.88
2023-01-29T22:57:34.957Z,8.13
2023-01-29T23:00:10.344Z,7.82
2023-01-29T23:02:38.302Z,8.38
2023-01-29T23:05:10.146Z,8.88
2023-01-29T23:07:41.724Z,8.23
2023-01-29T23:13:31.799Z,7.85
2023-01-29T23:16:10.187Z,8.05
2023-01-29T23:18:42.326Z,8.43
2023-01-29T23:21:15.692Z,8.60
2023-01-29T23:23:50.317Z,8.05
2023-01-29T23:29:27.953Z,8.52
2023-01-29T23:31:55.388Z,8.43
2023-01-29T23:34:29.118Z,8.65
2023-01-29T23:36:56.598Z,8.73
2023-01-29T23:39:26.779Z,8.75
2023-01-29T23:41:54.153Z,8.60
2023-01-29T23:44:27.621Z,8.27
2023-01-29T23:49:36.791Z,7.07
2023-01-29T23:52:11.325Z,7.05
2023-01-29T23:54:38.993Z,7.47
2023-01-29T23:57:06.558Z,6.47
2023-01-29T23:59:57.340Z,7.07
